sensor_id;sensor_type;location;lat;lon;timestamp;P1;durP1;ratioP1;P2;durP2;ratioP2
13793;SDS011;31160;49.500;7.772;2022-07-23T00:00:13;12.17;;;8.47;;
13793;SDS011;31160;49.500;7.772;2022-07-23T00:02:40;10.27;;;8.50;;
13793;SDS011;31160;49.500;7.772;2022-07-23T00:05:08;9.90;;;8.57;;
13793;SDS011;31160;49.500;7.772;2022-07-23T00:07:35;11.67;;;8.33;;
13793;SDS011;31160;49.500;7.772;2022-07-23T00:10:02;9.53;;;8.63;;
13793;SDS011;31160;49.500;7.772;2022-07-23T00:12:30;8.63;;;7.43;;
13793;SDS011;31160;49.500;7.772;2022-07-23T00:14:57;7.80;;;7.10;;
13793;SDS011;31160;49.500;7.772;2022-07-23T00:17:24;8.27;;;7.30;;
13793;SDS011;31160;49.500;7.772;2022-07-23T00:19:50;8.27;;;7.17;;
13793;SDS011;31160;49.500;7.772;2022-07-23T00:22:19;8.63;;;7.73;;
13793;SDS011;31160;49.500;7.772;2022-07-23T00:24:46;8.37;;;7.57;;
13793;SDS011;31160;49.500;7.772;2022-07-23T00:27:32;8.77;;;7.30;;
13793;SDS011;31160;49.500;7.772;2022-07-23T00:29:59;8.63;;;7.83;;
13793;SDS011;31160;49.500;7.772;2022-07-23T00:32:26;8.97;;;7.60;;
13793;SDS011;31160;49.500;7.772;2022-07-23T00:35:12;7.67;;;6.70;;
13793;SDS011;31160;49.500;7.772;2022-07-23T00:37:39;9.27;;;6.57;;
13793;SDS011;31160;49.500;7.772;2022-07-23T00:40:06;7.90;;;7.10;;
13793;SDS011;31160;49.500;7.772;2022-07-23T00:42:34;9.27;;;7.00;;
13793;SDS011;31160;49.500;7.772;2022-07-23T00:45:00;8.53;;;7.77;;
13793;SDS011;31160;49.500;7.772;2022-07-23T00:47:27;9.87;;;7.57;;
13793;SDS011;31160;49.500;7.772;2022-07-23T00:49:54;11.80;;;7.73;;
13793;SDS011;31160;49.500;7.772;2022-07-23T00:52:21;10.93;;;8.07;;
13793;SDS011;31160;49.500;7.772;2022-07-23T00:54:48;9.67;;;8.67;;
13793;SDS011;31160;49.500;7.772;2022-07-23T00:57:16;10.83;;;8.67;;
13793;SDS011;31160;49.500;7.772;2022-07-23T00:59:43;9.27;;;8.27;;
13793;SDS011;31160;49.500;7.772;2022-07-23T01:02:11;9.83;;;8.83;;
13793;SDS011;31160;49.500;7.772;2022-07-23T01:04:37;12.57;;;8.77;;
13793;SDS011;31160;49.500;7.772;2022-07-23T01:07:04;9.93;;;8.17;;
13793;SDS011;31160;49.500;7.772;2022-07-23T01:09:31;10.03;;;8.80;;
13793;SDS011;31160;49.500;7.772;2022-07-23T01:11:58;9.07;;;8.17;;
13793;SDS011;31160;49.500;7.772;2022-07-23T01:14:26;8.60;;;7.63;;
13793;SDS011;31160;49.500;7.772;2022-07-23T01:16:53;11.07;;;8.40;;
13793;SDS011;31160;49.500;7.772;2022-07-23T01:19:20;8.53;;;7.73;;
13793;SDS011;31160;49.500;7.772;2022-07-23T01:21:48;10.20;;;7.30;;
13793;SDS011;31160;49.500;7.772;2022-07-23T01:24:16;7.93;;;7.03;;
13793;SDS011;31160;49.500;7.772;2022-07-23T01:26:58;9.07;;;7.27;;
13793;SDS011;31160;49.500;7.772;2022-07-23T01:29:25;7.33;;;6.63;;
13793;SDS011;31160;49.500;7.772;2022-07-23T01:31:53;7.87;;;7.17;;
13793;SDS011;31160;49.500;7.772;2022-07-23T01:34:20;8.20;;;7.30;;
13793;SDS011;31160;49.500;7.772;2022-07-23T01:36:47;10.50;;;7.57;;
13793;SDS011;31160;49.500;7.772;2022-07-23T01:39:15;7.50;;;6.80;;
13793;SDS011;31160;49.500;7.772;2022-07-23T01:41:42;8.17;;;7.43;;
13793;SDS011;31160;49.500;7.772;2022-07-23T01:44:14;7.60;;;6.87;;
13793;SDS011;31160;49.500;7.772;2022-07-23T01:46:42;7.53;;;6.73;;
13793;SDS011;31160;49.500;7.772;2022-07-23T01:49:09;7.47;;;6.77;;
13793;SDS011;31160;49.500;7.772;2022-07-23T01:51:55;7.03;;;6.40;;
13793;SDS011;31160;49.500;7.772;2022-07-23T01:54:33;8.10;;;6.90;;
13793;SDS011;31160;49.500;7.772;2022-07-23T01:57:02;7.90;;;7.20;;
13793;SDS011;31160;49.500;7.772;2022-07-23T01:59:29;8.90;;;7.13;;
13793;SDS011;31160;49.500;7.772;2022-07-23T02:01:56;8.37;;;7.50;;
13793;SDS011;31160;49.500;7.772;2022-07-23T02:04:24;7.70;;;7.00;;
13793;SDS011;31160;49.500;7.772;2022-07-23T02:06:52;9.97;;;8.07;;
13793;SDS011;31160;49.500;7.772;2022-07-23T02:09:19;10.23;;;7.43;;
13793;SDS011;31160;49.500;7.772;2022-07-23T02:11:46;9.90;;;7.27;;
13793;SDS011;31160;49.500;7.772;2022-07-23T02:14:13;7.73;;;7.00;;
13793;SDS011;31160;49.500;7.772;2022-07-23T02:16:40;9.77;;;7.27;;
13793;SDS011;31160;49.500;7.772;2022-07-23T02:19:07;8.43;;;7.70;;
13793;SDS011;31160;49.500;7.772;2022-07-23T02:21:35;8.63;;;7.57;;
13793;SDS011;31160;49.500;7.772;2022-07-23T02:24:03;7.87;;;7.17;;
13793;SDS011;31160;49.500;7.772;2022-07-23T02:26:31;8.10;;;7.23;;
13793;SDS011;31160;49.500;7.772;2022-07-23T02:29:03;8.97;;;7.30;;
13793;SDS011;31160;49.500;7.772;2022-07-23T02:31:31;9.50;;;7.97;;
13793;SDS011;31160;49.500;7.772;2022-07-23T02:33:59;8.43;;;7.57;;
13793;SDS011;31160;49.500;7.772;2022-07-23T02:36:27;8.23;;;7.43;;
13793;SDS011;31160;49.500;7.772;2022-07-23T02:38:55;9.17;;;7.53;;
13793;SDS011;31160;49.500;7.772;2022-07-23T02:41:22;9.27;;;8.07;;
13793;SDS011;31160;49.500;7.772;2022-07-23T02:43:49;8.23;;;7.47;;
13793;SDS011;31160;49.500;7.772;2022-07-23T02:46:16;8.10;;;7.30;;
13793;SDS011;31160;49.500;7.772;2022-07-23T02:48:44;8.43;;;7.53;;
13793;SDS011;31160;49.500;7.772;2022-07-23T02:51:12;10.17;;;7.60;;
13793;SDS011;31160;49.500;7.772;2022-07-23T02:53:46;8.70;;;7.97;;
13793;SDS011;31160;49.500;7.772;2022-07-23T02:56:13;8.67;;;7.87;;
13793;SDS011;31160;49.500;7.772;2022-07-23T02:58:41;8.30;;;7.53;;
13793;SDS011;31160;49.500;7.772;2022-07-23T03:01:08;8.00;;;7.30;;
13793;SDS011;31160;49.500;7.772;2022-07-23T03:03:35;9.13;;;8.10;;
13793;SDS011;31160;49.500;7.772;2022-07-23T03:06:02;9.10;;;8.20;;
13793;SDS011;31160;49.500;7.772;2022-07-23T03:08:29;10.20;;;7.37;;
13793;SDS011;31160;49.500;7.772;2022-07-23T03:10:56;9.10;;;8.20;;
13793;SDS011;31160;49.500;7.772;2022-07-23T03:13:23;8.63;;;7.83;;
13793;SDS011;31160;49.500;7.772;2022-07-23T03:15:50;8.73;;;7.80;;
13793;SDS011;31160;49.500;7.772;2022-07-23T03:18:17;8.80;;;8.00;;
13793;SDS011;31160;49.500;7.772;2022-07-23T03:20:44;8.57;;;7.77;;
13793;SDS011;31160;49.500;7.772;2022-07-23T03:23:11;9.33;;;8.43;;
13793;SDS011;31160;49.500;7.772;2022-07-23T03:25:38;9.30;;;7.97;;
13793;SDS011;31160;49.500;7.772;2022-07-23T03:28:05;8.73;;;7.93;;
13793;SDS011;31160;49.500;7.772;2022-07-23T03:30:32;8.70;;;8.00;;
13793;SDS011;31160;49.500;7.772;2022-07-23T03:33:00;10.43;;;7.87;;
13793;SDS011;31160;49.500;7.772;2022-07-23T03:35:27;8.20;;;7.50;;
13793;SDS011;31160;49.500;7.772;2022-07-23T03:38:09;8.70;;;7.87;;
13793;SDS011;31160;49.500;7.772;2022-07-23T03:40:39;8.87;;;8.03;;
13793;SDS011;31160;49.500;7.772;2022-07-23T03:43:06;8.30;;;7.43;;
13793;SDS011;31160;49.500;7.772;2022-07-23T03:45:33;10.03;;;7.67;;
13793;SDS011;31160;49.500;7.772;2022-07-23T03:48:00;8.07;;;7.27;;
13793;SDS011;31160;49.500;7.772;2022-07-23T03:50:27;8.63;;;7.83;;
13793;SDS011;31160;49.500;7.772;2022-07-23T03:52:55;7.33;;;6.73;;
13793;SDS011;31160;49.500;7.772;2022-07-23T03:55:21;8.43;;;7.53;;
13793;SDS011;31160;49.500;7.772;2022-07-23T03:57:48;8.63;;;7.47;;
13793;SDS011;31160;49.500;7.772;2022-07-23T04:00:15;9.23;;;7.53;;
13793;SDS011;31160;49.500;7.772;2022-07-23T04:02:44;7.63;;;6.93;;
13793;SDS011;31160;49.500;7.772;2022-07-23T04:05:11;8.57;;;7.77;;
13793;SDS011;31160;49.500;7.772;2022-07-23T04:07:40;8.77;;;7.20;;
13793;SDS011;31160;49.500;7.772;2022-07-23T04:10:07;9.03;;;8.13;;
13793;SDS011;31160;49.500;7.772;2022-07-23T04:12:34;8.17;;;7.37;;
13793;SDS011;31160;49.500;7.772;2022-07-23T04:15:03;9.00;;;7.77;;
13793;SDS011;31160;49.500;7.772;2022-07-23T04:17:31;9.33;;;8.37;;
13793;SDS011;31160;49.500;7.772;2022-07-23T04:19:58;9.50;;;7.90;;
13793;SDS011;31160;49.500;7.772;2022-07-23T04:22:30;9.47;;;8.47;;
13793;SDS011;31160;49.500;7.772;2022-07-23T04:24:57;10.13;;;7.80;;
13793;SDS011;31160;49.500;7.772;2022-07-23T04:27:24;8.40;;;7.70;;
13793;SDS011;31160;49.500;7.772;2022-07-23T04:29:51;9.97;;;7.50;;
13793;SDS011;31160;49.500;7.772;2022-07-23T04:32:18;7.47;;;6.77;;
13793;SDS011;31160;49.500;7.772;2022-07-23T04:34:45;8.30;;;7.60;;
13793;SDS011;31160;49.500;7.772;2022-07-23T04:37:13;8.70;;;7.80;;
13793;SDS011;31160;49.500;7.772;2022-07-23T04:39:40;10.27;;;8.77;;
13793;SDS011;31160;49.500;7.772;2022-07-23T04:42:06;9.10;;;8.20;;
13793;SDS011;31160;49.500;7.772;2022-07-23T04:44:33;9.50;;;8.43;;
13793;SDS011;31160;49.500;7.772;2022-07-23T04:47:02;9.03;;;8.13;;
13793;SDS011;31160;49.500;7.772;2022-07-23T04:49:29;9.30;;;8.40;;
13793;SDS011;31160;49.500;7.772;2022-07-23T04:51:56;8.73;;;7.83;;
13793;SDS011;31160;49.500;7.772;2022-07-23T04:54:23;10.03;;;8.40;;
13793;SDS011;31160;49.500;7.772;2022-07-23T04:56:50;9.63;;;8.73;;
13793;SDS011;31160;49.500;7.772;2022-07-23T04:59:17;9.43;;;8.43;;
13793;SDS011;31160;49.500;7.772;2022-07-23T05:01:46;8.97;;;8.07;;
13793;SDS011;31160;49.500;7.772;2022-07-23T05:04:13;8.33;;;7.53;;
13793;SDS011;31160;49.500;7.772;2022-07-23T05:06:41;10.00;;;8.40;;
13793;SDS011;31160;49.500;7.772;2022-07-23T05:09:07;9.33;;;8.43;;
13793;SDS011;31160;49.500;7.772;2022-07-23T05:11:34;8.67;;;7.73;;
13793;SDS011;31160;49.500;7.772;2022-07-23T05:14:01;8.40;;;7.60;;
13793;SDS011;31160;49.500;7.772;2022-07-23T05:16:28;10.73;;;8.60;;
13793;SDS011;31160;49.500;7.772;2022-07-23T05:19:00;8.77;;;8.03;;
13793;SDS011;31160;49.500;7.772;2022-07-23T05:21:29;8.40;;;7.60;;
13793;SDS011;31160;49.500;7.772;2022-07-23T05:23:56;8.73;;;7.60;;
13793;SDS011;31160;49.500;7.772;2022-07-23T05:26:23;8.67;;;7.77;;
13793;SDS011;31160;49.500;7.772;2022-07-23T05:28:50;7.97;;;7.27;;
13793;SDS011;31160;49.500;7.772;2022-07-23T05:31:19;8.23;;;7.50;;
13793;SDS011;31160;49.500;7.772;2022-07-23T05:33:46;8.17;;;7.43;;
13793;SDS011;31160;49.500;7.772;2022-07-23T05:36:13;8.20;;;7.40;;
13793;SDS011;31160;49.500;7.772;2022-07-23T05:38:49;8.67;;;7.77;;
13793;SDS011;31160;49.500;7.772;2022-07-23T05:41:16;8.60;;;7.70;;
13793;SDS011;31160;49.500;7.772;2022-07-23T05:43:43;8.07;;;7.27;;
13793;SDS011;31160;49.500;7.772;2022-07-23T05:46:13;8.63;;;7.83;;
13793;SDS011;31160;49.500;7.772;2022-07-23T05:48:41;8.10;;;7.30;;
13793;SDS011;31160;49.500;7.772;2022-07-23T05:51:22;15.13;;;13.63;;
13793;SDS011;31160;49.500;7.772;2022-07-23T05:53:51;8.13;;;7.33;;
13793;SDS011;31160;49.500;7.772;2022-07-23T05:56:24;8.27;;;7.30;;
13793;SDS011;31160;49.500;7.772;2022-07-23T05:58:51;8.53;;;7.60;;
13793;SDS011;31160;49.500;7.772;2022-07-23T06:01:18;8.37;;;7.50;;
13793;SDS011;31160;49.500;7.772;2022-07-23T06:03:53;7.47;;;6.77;;
13793;SDS011;31160;49.500;7.772;2022-07-23T06:06:20;8.27;;;6.93;;
13793;SDS011;31160;49.500;7.772;2022-07-23T06:08:47;7.50;;;6.70;;
13793;SDS011;31160;49.500;7.772;2022-07-23T06:11:13;7.63;;;6.93;;
13793;SDS011;31160;49.500;7.772;2022-07-23T06:13:40;7.47;;;6.83;;
13793;SDS011;31160;49.500;7.772;2022-07-23T06:16:07;8.63;;;7.10;;
13793;SDS011;31160;49.500;7.772;2022-07-23T06:18:34;8.63;;;6.80;;
13793;SDS011;31160;49.500;7.772;2022-07-23T06:21:01;7.10;;;6.33;;
13793;SDS011;31160;49.500;7.772;2022-07-23T06:23:48;9.03;;;7.50;;
13793;SDS011;31160;49.500;7.772;2022-07-23T06:26:14;9.13;;;7.40;;
13793;SDS011;31160;49.500;7.772;2022-07-23T06:28:41;8.07;;;7.07;;
13793;SDS011;31160;49.500;7.772;2022-07-23T06:31:08;8.63;;;7.80;;
13793;SDS011;31160;49.500;7.772;2022-07-23T06:33:36;9.00;;;8.10;;
13793;SDS011;31160;49.500;7.772;2022-07-23T06:36:03;9.67;;;8.70;;
13793;SDS011;31160;49.500;7.772;2022-07-23T06:38:32;8.90;;;8.00;;
13793;SDS011;31160;49.500;7.772;2022-07-23T06:40:59;9.07;;;8.17;;
13793;SDS011;31160;49.500;7.772;2022-07-23T06:43:26;11.13;;;7.77;;
13793;SDS011;31160;49.500;7.772;2022-07-23T06:45:54;10.00;;;8.97;;
13793;SDS011;31160;49.500;7.772;2022-07-23T06:48:21;9.43;;;8.00;;
13793;SDS011;31160;49.500;7.772;2022-07-23T06:50:49;7.93;;;6.63;;
13793;SDS011;31160;49.500;7.772;2022-07-23T06:53:16;9.47;;;7.17;;
13793;SDS011;31160;49.500;7.772;2022-07-23T06:55:42;11.87;;;7.97;;
13793;SDS011;31160;49.500;7.772;2022-07-23T06:58:11;8.00;;;7.30;;
13793;SDS011;31160;49.500;7.772;2022-07-23T07:00:38;8.77;;;7.90;;
13793;SDS011;31160;49.500;7.772;2022-07-23T07:03:04;8.67;;;7.77;;
13793;SDS011;31160;49.500;7.772;2022-07-23T07:05:31;8.83;;;7.93;;
13793;SDS011;31160;49.500;7.772;2022-07-23T07:07:58;7.77;;;6.97;;
13793;SDS011;31160;49.500;7.772;2022-07-23T07:10:25;9.17;;;7.83;;
13793;SDS011;31160;49.500;7.772;2022-07-23T07:12:52;8.30;;;7.10;;
13793;SDS011;31160;49.500;7.772;2022-07-23T07:15:18;7.80;;;7.00;;
13793;SDS011;31160;49.500;7.772;2022-07-23T07:17:45;7.80;;;6.97;;
13793;SDS011;31160;49.500;7.772;2022-07-23T07:20:12;8.27;;;7.47;;
13793;SDS011;31160;49.500;7.772;2022-07-23T07:22:39;10.03;;;9.03;;
13793;SDS011;31160;49.500;7.772;2022-07-23T07:25:06;10.30;;;7.37;;
13793;SDS011;31160;49.500;7.772;2022-07-23T07:27:33;11.63;;;8.53;;
13793;SDS011;31160;49.500;7.772;2022-07-23T07:30:00;10.03;;;8.30;;
13793;SDS011;31160;49.500;7.772;2022-07-23T07:32:27;9.50;;;8.53;;
13793;SDS011;31160;49.500;7.772;2022-07-23T07:35:14;9.77;;;8.87;;
13793;SDS011;31160;49.500;7.772;2022-07-23T07:37:40;9.77;;;8.63;;
13793;SDS011;31160;49.500;7.772;2022-07-23T07:40:07;12.23;;;8.57;;
13793;SDS011;31160;49.500;7.772;2022-07-23T07:42:34;9.23;;;8.00;;
13793;SDS011;31160;49.500;7.772;2022-07-23T07:45:10;9.53;;;8.53;;
13793;SDS011;31160;49.500;7.772;2022-07-23T07:47:36;9.50;;;8.60;;
13793;SDS011;31160;49.500;7.772;2022-07-23T07:50:03;9.10;;;8.17;;
13793;SDS011;31160;49.500;7.772;2022-07-23T07:52:32;8.10;;;6.97;;
13793;SDS011;31160;49.500;7.772;2022-07-23T07:54:58;9.40;;;7.10;;
13793;SDS011;31160;49.500;7.772;2022-07-23T07:57:26;7.90;;;7.10;;
13793;SDS011;31160;49.500;7.772;2022-07-23T07:59:56;7.23;;;6.63;;
13793;SDS011;31160;49.500;7.772;2022-07-23T08:02:44;9.03;;;7.63;;
13793;SDS011;31160;49.500;7.772;2022-07-23T08:05:13;8.03;;;7.23;;
13793;SDS011;31160;49.500;7.772;2022-07-23T08:07:40;7.97;;;7.20;;
13793;SDS011;31160;49.500;7.772;2022-07-23T08:10:07;8.13;;;6.97;;
13793;SDS011;31160;49.500;7.772;2022-07-23T08:12:44;10.50;;;7.87;;
13793;SDS011;31160;49.500;7.772;2022-07-23T08:15:13;8.27;;;7.47;;
13793;SDS011;31160;49.500;7.772;2022-07-23T08:17:42;11.60;;;7.90;;
13793;SDS011;31160;49.500;7.772;2022-07-23T08:20:10;8.90;;;7.60;;
13793;SDS011;31160;49.500;7.772;2022-07-23T08:22:58;9.57;;;8.57;;
13793;SDS011;31160;49.500;7.772;2022-07-23T08:25:31;9.73;;;8.47;;
13793;SDS011;31160;49.500;7.772;2022-07-23T08:28:00;10.23;;;8.27;;
13793;SDS011;31160;49.500;7.772;2022-07-23T08:30:28;9.57;;;7.93;;
13793;SDS011;31160;49.500;7.772;2022-07-23T08:32:57;8.87;;;7.63;;
13793;SDS011;31160;49.500;7.772;2022-07-23T08:35:45;9.17;;;8.03;;
13793;SDS011;31160;49.500;7.772;2022-07-23T08:38:14;8.73;;;7.93;;
13793;SDS011;31160;49.500;7.772;2022-07-23T08:40:44;8.83;;;7.83;;
13793;SDS011;31160;49.500;7.772;2022-07-23T08:43:16;9.40;;;8.33;;
13793;SDS011;31160;49.500;7.772;2022-07-23T08:45:46;8.90;;;7.70;;
13793;SDS011;31160;49.500;7.772;2022-07-23T08:48:15;8.10;;;7.30;;
13793;SDS011;31160;49.500;7.772;2022-07-23T08:50:46;8.13;;;6.80;;
13793;SDS011;31160;49.500;7.772;2022-07-23T08:53:15;7.23;;;6.37;;
13793;SDS011;31160;49.500;7.772;2022-07-23T08:55:43;7.30;;;6.00;;
13793;SDS011;31160;49.500;7.772;2022-07-23T08:58:14;9.07;;;7.40;;
13793;SDS011;31160;49.500;7.772;2022-07-23T09:00:42;8.47;;;6.80;;
13793;SDS011;31160;49.500;7.772;2022-07-23T09:03:19;7.47;;;6.77;;
13793;SDS011;31160;49.500;7.772;2022-07-23T09:05:49;7.33;;;6.60;;
13793;SDS011;31160;49.500;7.772;2022-07-23T09:08:18;12.37;;;7.60;;
13793;SDS011;31160;49.500;7.772;2022-07-23T09:10:51;8.00;;;7.27;;
13793;SDS011;31160;49.500;7.772;2022-07-23T09:13:31;8.00;;;7.17;;
13793;SDS011;31160;49.500;7.772;2022-07-23T09:16:02;11.50;;;6.60;;
13793;SDS011;31160;49.500;7.772;2022-07-23T09:18:33;7.17;;;6.07;;
13793;SDS011;31160;49.500;7.772;2022-07-23T09:21:07;8.13;;;7.33;;
13793;SDS011;31160;49.500;7.772;2022-07-23T09:23:46;7.20;;;6.60;;
13793;SDS011;31160;49.500;7.772;2022-07-23T09:26:23;7.67;;;6.87;;
13793;SDS011;31160;49.500;7.772;2022-07-23T09:29:20;7.83;;;7.03;;
13793;SDS011;31160;49.500;7.772;2022-07-23T09:31:49;8.33;;;6.80;;
13793;SDS011;31160;49.500;7.772;2022-07-23T09:34:18;7.60;;;6.83;;
13793;SDS011;31160;49.500;7.772;2022-07-23T09:36:53;7.40;;;6.10;;
13793;SDS011;31160;49.500;7.772;2022-07-23T09:39:31;7.37;;;6.67;;
13793;SDS011;31160;49.500;7.772;2022-07-23T09:42:16;7.03;;;6.20;;
13793;SDS011;31160;49.500;7.772;2022-07-23T09:44:55;6.63;;;6.03;;
13793;SDS011;31160;49.500;7.772;2022-07-23T09:47:23;10.60;;;6.70;;
13793;SDS011;31160;49.500;7.772;2022-07-23T09:49:58;7.13;;;6.47;;
13793;SDS011;31160;49.500;7.772;2022-07-23T09:52:47;7.07;;;6.30;;
13793;SDS011;31160;49.500;7.772;2022-07-23T09:55:16;6.70;;;5.97;;
13793;SDS011;31160;49.500;7.772;2022-07-23T09:57:44;7.10;;;6.40;;
13793;SDS011;31160;49.500;7.772;2022-07-23T10:00:15;6.33;;;5.73;;
13793;SDS011;31160;49.500;7.772;2022-07-23T10:02:42;7.00;;;6.33;;
13793;SDS011;31160;49.500;7.772;2022-07-23T10:05:28;7.50;;;6.50;;
13793;SDS011;31160;49.500;7.772;2022-07-23T10:08:16;7.17;;;6.47;;
13793;SDS011;31160;49.500;7.772;2022-07-23T10:10:47;6.23;;;5.67;;
13793;SDS011;31160;49.500;7.772;2022-07-23T10:13:16;6.73;;;5.53;;
13793;SDS011;31160;49.500;7.772;2022-07-23T10:16:04;8.37;;;6.00;;
13793;SDS011;31160;49.500;7.772;2022-07-23T10:18:31;6.53;;;5.80;;
13793;SDS011;31160;49.500;7.772;2022-07-23T10:20:58;6.87;;;5.97;;
13793;SDS011;31160;49.500;7.772;2022-07-23T10:29:10;5.73;;;5.23;;
13793;SDS011;31160;49.500;7.772;2022-07-23T10:35:36;6.97;;;5.63;;
13793;SDS011;31160;49.500;7.772;2022-07-23T10:37:46;6.07;;;5.10;;
13793;SDS011;31160;49.500;7.772;2022-07-23T10:40:19;6.73;;;4.90;;
13793;SDS011;31160;49.500;7.772;2022-07-23T10:42:47;6.23;;;5.60;;
13793;SDS011;31160;49.500;7.772;2022-07-23T10:48:16;10.57;;;5.63;;
13793;SDS011;31160;49.500;7.772;2022-07-23T10:51:10;9.43;;;5.60;;
13793;SDS011;31160;49.500;7.772;2022-07-23T10:56:17;5.50;;;5.00;;
13793;SDS011;31160;49.500;7.772;2022-07-23T10:59:22;5.40;;;4.90;;
13793;SDS011;31160;49.500;7.772;2022-07-23T11:01:49;5.87;;;5.07;;
13793;SDS011;31160;49.500;7.772;2022-07-23T11:04:17;7.03;;;5.37;;
13793;SDS011;31160;49.500;7.772;2022-07-23T11:09:26;6.20;;;5.50;;
13793;SDS011;31160;49.500;7.772;2022-07-23T11:14:59;5.37;;;4.87;;
13793;SDS011;31160;49.500;7.772;2022-07-23T11:22:40;6.43;;;5.83;;
13793;SDS011;31160;49.500;7.772;2022-07-23T11:27:49;7.37;;;5.57;;
13793;SDS011;31160;49.500;7.772;2022-07-23T11:32:53;7.30;;;5.70;;
13793;SDS011;31160;49.500;7.772;2022-07-23T11:35:41;5.77;;;5.20;;
13793;SDS011;31160;49.500;7.772;2022-07-23T11:40:46;5.83;;;5.20;;
13793;SDS011;31160;49.500;7.772;2022-07-23T11:43:15;6.37;;;5.57;;
13793;SDS011;31160;49.500;7.772;2022-07-23T11:45:43;5.93;;;5.03;;
13793;SDS011;31160;49.500;7.772;2022-07-23T11:48:22;6.53;;;5.07;;
13793;SDS011;31160;49.500;7.772;2022-07-23T11:50:51;6.13;;;5.17;;
13793;SDS011;31160;49.500;7.772;2022-07-23T11:53:29;6.77;;;4.97;;
13793;SDS011;31160;49.500;7.772;2022-07-23T11:56:07;6.50;;;5.00;;
13793;SDS011;31160;49.500;7.772;2022-07-23T11:58:36;6.53;;;5.70;;
13793;SDS011;31160;49.500;7.772;2022-07-23T12:01:04;8.40;;;7.03;;
13793;SDS011;31160;49.500;7.772;2022-07-23T12:03:31;8.57;;;5.63;;
13793;SDS011;31160;49.500;7.772;2022-07-23T12:05:59;7.57;;;5.10;;
13793;SDS011;31160;49.500;7.772;2022-07-23T12:08:26;6.23;;;5.27;;
13793;SDS011;31160;49.500;7.772;2022-07-23T12:10:53;7.40;;;5.13;;
13793;SDS011;31160;49.500;7.772;2022-07-23T12:13:20;5.30;;;4.80;;
13793;SDS011;31160;49.500;7.772;2022-07-23T12:15:53;5.47;;;4.47;;
13793;SDS011;31160;49.500;7.772;2022-07-23T12:18:23;6.97;;;5.30;;
13793;SDS011;31160;49.500;7.772;2022-07-23T12:20:51;5.20;;;4.70;;
13793;SDS011;31160;49.500;7.772;2022-07-23T12:23:20;5.40;;;4.07;;
13793;SDS011;31160;49.500;7.772;2022-07-23T12:25:49;4.83;;;4.37;;
13793;SDS011;31160;49.500;7.772;2022-07-23T12:28:18;4.93;;;4.43;;
13793;SDS011;31160;49.500;7.772;2022-07-23T12:30:53;5.77;;;4.63;;
13793;SDS011;31160;49.500;7.772;2022-07-23T12:33:22;8.47;;;4.70;;
13793;SDS011;31160;49.500;7.772;2022-07-23T12:35:51;4.97;;;4.30;;
13793;SDS011;31160;49.500;7.772;2022-07-23T12:38:20;5.17;;;4.67;;
13793;SDS011;31160;49.500;7.772;2022-07-23T12:40:52;5.90;;;4.67;;
13793;SDS011;31160;49.500;7.772;2022-07-23T12:45:55;5.07;;;4.40;;
13793;SDS011;31160;49.500;7.772;2022-07-23T12:48:53;5.70;;;5.17;;
13793;SDS011;31160;49.500;7.772;2022-07-23T12:51:24;5.10;;;4.60;;
13793;SDS011;31160;49.500;7.772;2022-07-23T12:53:54;6.17;;;5.17;;
13793;SDS011;31160;49.500;7.772;2022-07-23T12:56:31;4.97;;;4.57;;
13793;SDS011;31160;49.500;7.772;2022-07-23T13:01:32;7.30;;;5.00;;
13793;SDS011;31160;49.500;7.772;2022-07-23T13:06:40;5.60;;;4.40;;
13793;SDS011;31160;49.500;7.772;2022-07-23T13:09:14;7.77;;;5.00;;
13793;SDS011;31160;49.500;7.772;2022-07-23T13:11:43;6.23;;;5.20;;
13793;SDS011;31160;49.500;7.772;2022-07-23T13:14:13;5.30;;;4.50;;
13793;SDS011;31160;49.500;7.772;2022-07-23T13:16:41;5.13;;;4.63;;
13793;SDS011;31160;49.500;7.772;2022-07-23T13:19:09;6.50;;;4.83;;
13793;SDS011;31160;49.500;7.772;2022-07-23T13:21:37;5.57;;;4.60;;
13793;SDS011;31160;49.500;7.772;2022-07-23T13:24:05;5.00;;;4.50;;
13793;SDS011;31160;49.500;7.772;2022-07-23T13:26:34;5.00;;;4.50;;
13793;SDS011;31160;49.500;7.772;2022-07-23T13:29:03;5.60;;;4.63;;
13793;SDS011;31160;49.500;7.772;2022-07-23T13:31:36;7.00;;;4.70;;
13793;SDS011;31160;49.500;7.772;2022-07-23T13:34:04;7.50;;;4.27;;
13793;SDS011;31160;49.500;7.772;2022-07-23T13:36:33;6.63;;;4.30;;
13793;SDS011;31160;49.500;7.772;2022-07-23T13:39:01;5.57;;;4.40;;
13793;SDS011;31160;49.500;7.772;2022-07-23T13:41:28;7.80;;;4.50;;
13793;SDS011;31160;49.500;7.772;2022-07-23T13:43:55;5.23;;;4.73;;
13793;SDS011;31160;49.500;7.772;2022-07-23T13:46:23;6.83;;;5.10;;
13793;SDS011;31160;49.500;7.772;2022-07-23T13:48:50;5.80;;;4.63;;
13793;SDS011;31160;49.500;7.772;2022-07-23T13:51:17;5.67;;;4.50;;
13793;SDS011;31160;49.500;7.772;2022-07-23T13:53:45;5.50;;;4.30;;
13793;SDS011;31160;49.500;7.772;2022-07-23T13:56:12;6.70;;;4.70;;
13793;SDS011;31160;49.500;7.772;2022-07-23T13:58:39;4.93;;;4.43;;
13793;SDS011;31160;49.500;7.772;2022-07-23T14:01:06;6.70;;;4.60;;
13793;SDS011;31160;49.500;7.772;2022-07-23T14:03:33;6.27;;;4.43;;
13793;SDS011;31160;49.500;7.772;2022-07-23T14:06:00;8.00;;;4.20;;
13793;SDS011;31160;49.500;7.772;2022-07-23T14:08:27;7.07;;;5.57;;
13793;SDS011;31160;49.500;7.772;2022-07-23T14:10:55;4.80;;;4.33;;
13793;SDS011;31160;49.500;7.772;2022-07-23T14:13:24;10.47;;;7.33;;
13793;SDS011;31160;49.500;7.772;2022-07-23T14:15:51;5.67;;;4.63;;
13793;SDS011;31160;49.500;7.772;2022-07-23T14:18:18;4.60;;;4.20;;
13793;SDS011;31160;49.500;7.772;2022-07-23T14:20:47;6.77;;;4.67;;
13793;SDS011;31160;49.500;7.772;2022-07-23T14:23:13;4.97;;;4.33;;
13793;SDS011;31160;49.500;7.772;2022-07-23T14:25:40;6.30;;;5.30;;
13793;SDS011;31160;49.500;7.772;2022-07-23T14:28:08;5.17;;;4.67;;
13793;SDS011;31160;49.500;7.772;2022-07-23T14:30:35;5.27;;;4.77;;
13793;SDS011;31160;49.500;7.772;2022-07-23T14:33:02;8.10;;;5.00;;
13793;SDS011;31160;49.500;7.772;2022-07-23T14:35:29;6.73;;;4.57;;
13793;SDS011;31160;49.500;7.772;2022-07-23T14:37:56;5.93;;;4.67;;
13793;SDS011;31160;49.500;7.772;2022-07-23T14:40:23;5.43;;;4.93;;
13793;SDS011;31160;49.500;7.772;2022-07-23T14:42:50;5.40;;;4.77;;
13793;SDS011;31160;49.500;7.772;2022-07-23T14:45:17;5.93;;;5.00;;
13793;SDS011;31160;49.500;7.772;2022-07-23T14:47:45;4.57;;;4.17;;
13793;SDS011;31160;49.500;7.772;2022-07-23T14:50:14;5.07;;;4.67;;
13793;SDS011;31160;49.500;7.772;2022-07-23T14:52:41;5.17;;;4.60;;
13793;SDS011;31160;49.500;7.772;2022-07-23T14:55:08;5.47;;;4.93;;
13793;SDS011;31160;49.500;7.772;2022-07-23T14:57:35;5.70;;;4.77;;
13793;SDS011;31160;49.500;7.772;2022-07-23T15:00:03;4.90;;;4.50;;
13793;SDS011;31160;49.500;7.772;2022-07-23T15:02:31;5.43;;;4.87;;
13793;SDS011;31160;49.500;7.772;2022-07-23T15:04:58;5.97;;;5.03;;
13793;SDS011;31160;49.500;7.772;2022-07-23T15:07:27;5.60;;;5.07;;
13793;SDS011;31160;49.500;7.772;2022-07-23T15:09:58;6.10;;;5.33;;
13793;SDS011;31160;49.500;7.772;2022-07-23T15:12:24;6.00;;;4.57;;
13793;SDS011;31160;49.500;7.772;2022-07-23T15:14:51;5.90;;;5.27;;
13793;SDS011;31160;49.500;7.772;2022-07-23T15:17:18;6.27;;;5.20;;
13793;SDS011;31160;49.500;7.772;2022-07-23T15:19:46;5.37;;;4.90;;
13793;SDS011;31160;49.500;7.772;2022-07-23T15:22:15;5.60;;;5.00;;
13793;SDS011;31160;49.500;7.772;2022-07-23T15:24:42;4.53;;;4.10;;
13793;SDS011;31160;49.500;7.772;2022-07-23T15:27:09;5.03;;;4.53;;
13793;SDS011;31160;49.500;7.772;2022-07-23T15:29:36;5.07;;;4.57;;
13793;SDS011;31160;49.500;7.772;2022-07-23T15:32:03;10.23;;;4.60;;
13793;SDS011;31160;49.500;7.772;2022-07-23T15:34:30;4.43;;;4.03;;
13793;SDS011;31160;49.500;7.772;2022-07-23T15:36:59;6.43;;;4.23;;
13793;SDS011;31160;49.500;7.772;2022-07-23T15:39:27;5.53;;;5.00;;